sensor_id;sensor_type;location;lat;lon;timestamp;pressure;altitude;pressure_sealevel;temperature;humidity
60719;BME280;46567;51.660;5.824;2023-05-29T00:02:09;131900.0;;;190.6;84.5
60719;BME280;46567;51.660;5.824;2023-05-29T00:07:09;131930.0;;;190.6;85.0
60719;BME280;46567;51.660;5.824;2023-05-29T00:12:09;131960.0;;;190.6;85.0
60719;BME280;46567;51.660;5.824;2023-05-29T00:17:09;131980.0;;;190.6;84.5
60719;BME280;46567;51.660;5.824;2023-05-29T00:22:09;132020.0;;;190.6;84.0
60719;BME280;46567;51.660;5.824;2023-05-29T00:27:09;132050.0;;;190.6;83.5
60719;BME280;46567;51.660;5.824;2023-05-29T00:32:09;132060.0;;;190.6;83.0
60719;BME280;46567;51.660;5.824;2023-05-29T00:37:09;132090.0;;;190.6;83.0
60719;BME280;46567;51.660;5.824;2023-05-29T00:42:09;132110.0;;;190.6;82.5
60719;BME280;46567;51.660;5.824;2023-05-29T00:47:09;132140.0;;;190.6;82.5
60719;BME280;46567;51.660;5.824;2023-05-29T00:52:10;132160.0;;;190.6;82.5
60719;BME280;46567;51.660;5.824;2023-05-29T00:57:09;132190.0;;;190.6;82.0
60719;BME280;46567;51.660;5.824;2023-05-29T01:02:09;132190.0;;;190.6;82.0
60719;BME280;46567;51.660;5.824;2023-05-29T01:07:09;132250.0;;;190.6;82.5
60719;BME280;46567;51.660;5.824;2023-05-29T01:12:36;132250.0;;;190.6;83.0
60719;BME280;46567;51.660;5.824;2023-05-29T01:17:32;132270.0;;;190.6;83.0
60719;BME280;46567;51.660;5.824;2023-05-29T01:23:07;132300.0;;;190.6;83.5
60719;BME280;46567;51.660;5.824;2023-05-29T01:27:10;132300.0;;;190.6;83.0
60719;BME280;46567;51.660;5.824;2023-05-29T01:32:09;132330.0;;;190.6;84.0
60719;BME280;46567;51.660;5.824;2023-05-29T01:37:09;132340.0;;;190.6;84.5
60719;BME280;46567;51.660;5.824;2023-05-29T01:42:09;132360.0;;;190.6;84.5
60719;BME280;46567;51.660;5.824;2023-05-29T01:47:09;132370.0;;;190.6;84.5
60719;BME280;46567;51.660;5.824;2023-05-29T01:52:10;132390.0;;;190.6;85.0
60719;BME280;46567;51.660;5.824;2023-05-29T01:57:09;132390.0;;;190.6;85.5
60719;BME280;46567;51.660;5.824;2023-05-29T02:02:09;132400.0;;;190.6;86.0
60719;BME280;46567;51.660;5.824;2023-05-29T02:07:09;132410.0;;;190.6;86.5
60719;BME280;46567;51.660;5.824;2023-05-29T02:17:09;132430.0;;;190.6;87.0
60719;BME280;46567;51.660;5.824;2023-05-29T02:22:09;132450.0;;;190.6;86.5
60719;BME280;46567;51.660;5.824;2023-05-29T02:27:09;132460.0;;;190.6;87.0
60719;BME280;46567;51.660;5.824;2023-05-29T02:32:09;132460.0;;;190.6;87.0
60719;BME280;46567;51.660;5.824;2023-05-29T02:37:09;132480.0;;;190.6;87.5
60719;BME280;46567;51.660;5.824;2023-05-29T02:42:09;132500.0;;;190.6;88.0
60719;BME280;46567;51.660;5.824;2023-05-29T02:47:09;132510.0;;;190.6;88.5
60719;BME280;46567;51.660;5.824;2023-05-29T02:52:09;132530.0;;;190.6;88.5
60719;BME280;46567;51.660;5.824;2023-05-29T02:57:09;132540.0;;;190.6;89.0
60719;BME280;46567;51.660;5.824;2023-05-29T03:02:09;132540.0;;;190.6;89.0
60719;BME280;46567;51.660;5.824;2023-05-29T03:07:09;132550.0;;;190.6;89.5
60719;BME280;46567;51.660;5.824;2023-05-29T03:12:09;132540.0;;;190.6;89.5
60719;BME280;46567;51.660;5.824;2023-05-29T03:17:09;132550.0;;;190.6;90.0
60719;BME280;46567;51.660;5.824;2023-05-29T03:22:09;132550.0;;;190.6;90.5
60719;BME280;46567;51.660;5.824;2023-05-29T03:27:09;132580.0;;;190.6;90.5
60719;BME280;46567;51.660;5.824;2023-05-29T03:37:09;132610.0;;;190.6;91.5
60719;BME280;46567;51.660;5.824;2023-05-29T03:42:09;132610.0;;;190.6;91.5
60719;BME280;46567;51.660;5.824;2023-05-29T03:47:09;132620.0;;;190.6;91.0
60719;BME280;46567;51.660;5.824;2023-05-29T03:52:09;132620.0;;;190.6;91.0
60719;BME280;46567;51.660;5.824;2023-05-29T03:57:09;132610.0;;;190.6;91.0
60719;BME280;46567;51.660;5.824;2023-05-29T04:02:09;132630.0;;;190.6;91.0
60719;BME280;46567;51.660;5.824;2023-05-29T04:07:09;132640.0;;;190.6;91.5
60719;BME280;46567;51.660;5.824;2023-05-29T04:12:09;132650.0;;;190.6;91.5
60719;BME280;46567;51.660;5.824;2023-05-29T04:17:09;132650.0;;;190.6;91.5
60719;BME280;46567;51.660;5.824;2023-05-29T04:22:09;132640.0;;;190.6;91.0
60719;BME280;46567;51.660;5.824;2023-05-29T04:27:09;132620.0;;;190.6;91.0
60719;BME280;46567;51.660;5.824;2023-05-29T04:32:09;132620.0;;;190.6;90.5
60719;BME280;46567;51.660;5.824;2023-05-29T04:37:09;132620.0;;;190.6;90.5
60719;BME280;46567;51.660;5.824;2023-05-29T04:42:09;132610.0;;;190.6;90.0
60719;BME280;46567;51.660;5.824;2023-05-29T04:47:09;132570.0;;;190.6;90.0
60719;BME280;46567;51.660;5.824;2023-05-29T04:52:09;132530.0;;;190.6;89.0
60719;BME280;46567;51.660;5.824;2023-05-29T04:57:09;132520.0;;;190.6;88.5
60719;BME280;46567;51.660;5.824;2023-05-29T05:02:09;132470.0;;;190.6;88.0
60719;BME280;46567;51.660;5.824;2023-05-29T05:07:09;132450.0;;;190.6;87.5
60719;BME280;46567;51.660;5.824;2023-05-29T05:12:09;132460.0;;;190.6;87.0
60719;BME280;46567;51.660;5.824;2023-05-29T05:17:09;132470.0;;;190.6;87.0
60719;BME280;46567;51.660;5.824;2023-05-29T05:22:09;132490.0;;;190.6;87.0
60719;BME280;46567;51.660;5.824;2023-05-29T05:27:09;132460.0;;;190.6;87.0
60719;BME280;46567;51.660;5.824;2023-05-29T05:32:09;132460.0;;;190.6;86.5
60719;BME280;46567;51.660;5.824;2023-05-29T05:37:09;132440.0;;;190.6;86.0
60719;BME280;46567;51.660;5.824;2023-05-29T05:42:09;132420.0;;;190.6;85.5
60719;BME280;46567;51.660;5.824;2023-05-29T05:47:09;132410.0;;;190.6;85.0
60719;BME280;46567;51.660;5.824;2023-05-29T05:52:09;132370.0;;;190.6;84.5
60719;BME280;46567;51.660;5.824;2023-05-29T05:57:09;132330.0;;;190.6;84.0
60719;BME280;46567;51.660;5.824;2023-05-29T06:02:09;132300.0;;;190.6;83.0
60719;BME280;46567;51.660;5.824;2023-05-29T06:07:09;132260.0;;;190.6;82.0
60719;BME280;46567;51.660;5.824;2023-05-29T06:12:09;132260.0;;;190.6;81.0
60719;BME280;46567;51.660;5.824;2023-05-29T06:17:09;132220.0;;;190.6;80.5
60719;BME280;46567;51.660;5.824;2023-05-29T06:22:09;132180.0;;;190.6;79.0
60719;BME280;46567;51.660;5.824;2023-05-29T06:27:09;132170.0;;;190.6;78.5
60719;BME280;46567;51.660;5.824;2023-05-29T06:32:09;132140.0;;;190.6;78.0
60719;BME280;46567;51.660;5.824;2023-05-29T06:37:09;132130.0;;;190.6;76.5
60719;BME280;46567;51.660;5.824;2023-05-29T06:42:09;132090.0;;;190.6;77.0
60719;BME280;46567;51.660;5.824;2023-05-29T06:47:09;132030.0;;;190.6;75.5
60719;BME280;46567;51.660;5.824;2023-05-29T06:52:09;132000.0;;;190.6;74.0
60719;BME280;46567;51.660;5.824;2023-05-29T06:57:09;131950.0;;;190.6;73.0
60719;BME280;46567;51.660;5.824;2023-05-29T07:02:09;131940.0;;;190.6;72.5
60719;BME280;46567;51.660;5.824;2023-05-29T07:07:09;131900.0;;;190.6;71.0
60719;BME280;46567;51.660;5.824;2023-05-29T07:12:09;131870.0;;;190.6;71.0
60719;BME280;46567;51.660;5.824;2023-05-29T07:17:09;131810.0;;;190.6;70.0
60719;BME280;46567;51.660;5.824;2023-05-29T07:22:09;131750.0;;;190.6;68.5
60719;BME280;46567;51.660;5.824;2023-05-29T07:27:09;131740.0;;;190.6;66.0
60719;BME280;46567;51.660;5.824;2023-05-29T07:32:09;131700.0;;;190.6;67.5
60719;BME280;46567;51.660;5.824;2023-05-29T07:37:09;131620.0;;;190.6;66.5
60719;BME280;46567;51.660;5.824;2023-05-29T07:42:09;131570.0;;;190.6;64.0
60719;BME280;46567;51.660;5.824;2023-05-29T07:47:09;131560.0;;;190.6;63.5
60719;BME280;46567;51.660;5.824;2023-05-29T07:52:09;131550.0;;;190.6;63.0
60719;BME280;46567;51.660;5.824;2023-05-29T07:57:09;131520.0;;;190.6;62.0
60719;BME280;46567;51.660;5.824;2023-05-29T08:02:09;131530.0;;;190.6;61.5
60719;BME280;46567;51.660;5.824;2023-05-29T08:07:09;131500.0;;;190.6;60.5
60719;BME280;46567;51.660;5.824;2023-05-29T08:12:09;131470.0;;;190.6;61.0
60719;BME280;46567;51.660;5.824;2023-05-29T08:17:09;131440.0;;;190.6;60.5
60719;BME280;46567;51.660;5.824;2023-05-29T08:22:12;131430.0;;;190.6;59.0
60719;BME280;46567;51.660;5.824;2023-05-29T08:27:09;131400.0;;;190.6;58.5
60719;BME280;46567;51.660;5.824;2023-05-29T08:32:09;131370.0;;;190.6;58.0
60719;BME280;46567;51.660;5.824;2023-05-29T08:37:09;131360.0;;;190.6;57.0
60719;BME280;46567;51.660;5.824;2023-05-29T08:42:24;131340.0;;;190.6;56.0
60719;BME280;46567;51.660;5.824;2023-05-29T08:47:10;131320.0;;;190.6;55.0
60719;BME280;46567;51.660;5.824;2023-05-29T08:52:15;131270.0;;;190.6;56.0
60719;BME280;46567;51.660;5.824;2023-05-29T08:57:10;131240.0;;;190.6;54.0
60719;BME280;46567;51.660;5.824;2023-05-29T09:02:09;131240.0;;;190.6;52.5
60719;BME280;46567;51.660;5.824;2023-05-29T09:07:09;131260.0;;;190.6;52.0
60719;BME280;46567;51.660;5.824;2023-05-29T09:12:09;131240.0;;;190.6;52.0
60719;BME280;46567;51.660;5.824;2023-05-29T09:17:10;131260.0;;;190.6;51.0
60719;BME280;46567;51.660;5.824;2023-05-29T09:22:10;131270.0;;;190.6;52.0
60719;BME280;46567;51.660;5.824;2023-05-29T09:27:09;131250.0;;;190.6;52.0
60719;BME280;46567;51.660;5.824;2023-05-29T09:32:10;131230.0;;;190.6;52.0
60719;BME280;46567;51.660;5.824;2023-05-29T09:37:10;131220.0;;;190.6;52.5
60719;BME280;46567;51.660;5.824;2023-05-29T09:42:09;131140.0;;;190.6;51.0
60719;BME280;46567;51.660;5.824;2023-05-29T09:47:09;131130.0;;;190.6;50.0
60719;BME280;46567;51.660;5.824;2023-05-29T09:52:11;131100.0;;;190.6;50.5
60719;BME280;46567;51.660;5.824;2023-05-29T09:57:09;131070.0;;;190.6;49.0
60719;BME280;46567;51.660;5.824;2023-05-29T10:02:09;131060.0;;;190.6;48.0
60719;BME280;46567;51.660;5.824;2023-05-29T10:07:12;131070.0;;;190.6;47.0
60719;BME280;46567;51.660;5.824;2023-05-29T10:12:11;131050.0;;;190.6;47.5
60719;BME280;46567;51.660;5.824;2023-05-29T10:17:11;131010.0;;;190.6;49.0
60719;BME280;46567;51.660;5.824;2023-05-29T10:22:10;130940.0;;;190.6;48.0
60719;BME280;46567;51.660;5.824;2023-05-29T10:27:09;130910.0;;;190.6;46.5
60719;BME280;46567;51.660;5.824;2023-05-29T10:32:20;130880.0;;;190.6;45.5
60719;BME280;46567;51.660;5.824;2023-05-29T10:37:36;130900.0;;;190.6;44.5
60719;BME280;46567;51.660;5.824;2023-05-29T10:42:41;130890.0;;;190.6;45.5
60719;BME280;46567;51.660;5.824;2023-05-29T10:47:09;130890.0;;;190.6;44.5
60719;BME280;46567;51.660;5.824;2023-05-29T10:52:10;130870.0;;;190.6;44.5
60719;BME280;46567;51.660;5.824;2023-05-29T10:57:09;130860.0;;;190.6;44.5
60719;BME280;46567;51.660;5.824;2023-05-29T11:02:10;130830.0;;;190.6;44.0
60719;BME280;46567;51.660;5.824;2023-05-29T11:07:31;130810.0;;;190.6;44.5
60719;BME280;46567;51.660;5.824;2023-05-29T11:12:12;130810.0;;;190.6;43.5
60719;BME280;46567;51.660;5.824;2023-05-29T11:17:28;130760.0;;;190.6;43.0
60719;BME280;46567;51.660;5.824;2023-05-29T11:22:23;130800.0;;;190.6;42.5
60719;BME280;46567;51.660;5.824;2023-05-29T11:27:09;130790.0;;;190.6;43.5
60719;BME280;46567;51.660;5.824;2023-05-29T11:32:13;130740.0;;;190.6;43.0
60719;BME280;46567;51.660;5.824;2023-05-29T11:37:11;130690.0;;;190.6;42.5
60719;BME280;46567;51.660;5.824;2023-05-29T11:42:09;130670.0;;;190.6;41.5
60719;BME280;46567;51.660;5.824;2023-05-29T11:47:09;130650.0;;;190.6;41.5
60719;BME280;46567;51.660;5.824;2023-05-29T11:52:10;130620.0;;;190.6;42.0
60719;BME280;46567;51.660;5.824;2023-05-29T11:57:09;130620.0;;;190.6;41.0
60719;BME280;46567;51.660;5.824;2023-05-29T12:02:09;130620.0;;;190.6;41.0
60719;BME280;46567;51.660;5.824;2023-05-29T12:07:17;130580.0;;;190.6;41.5
60719;BME280;46567;51.660;5.824;2023-05-29T12:12:09;130560.0;;;190.6;40.5
60719;BME280;46567;51.660;5.824;2023-05-29T12:17:09;130540.0;;;190.6;38.5
60719;BME280;46567;51.660;5.824;2023-05-29T12:22:09;130550.0;;;190.6;39.0
60719;BME280;46567;51.660;5.824;2023-05-29T12:27:09;130550.0;;;190.6;38.5
60719;BME280;46567;51.660;5.824;2023-05-29T12:32:09;130550.0;;;190.6;39.0
60719;BME280;46567;51.660;5.824;2023-05-29T12:37:09;130540.0;;;190.6;39.0
60719;BME280;46567;51.660;5.824;2023-05-29T12:42:10;130490.0;;;190.6;38.5
60719;BME280;46567;51.660;5.824;2023-05-29T12:47:09;130490.0;;;190.6;37.5
60719;BME280;46567;51.660;5.824;2023-05-29T12:52:09;130520.0;;;190.6;36.0
60719;BME280;46567;51.660;5.824;2023-05-29T12:57:09;130540.0;;;190.6;36.0
60719;BME280;46567;51.660;5.824;2023-05-29T13:02:09;130560.0;;;190.6;35.5
60719;BME280;46567;51.660;5.824;2023-05-29T13:07:09;130540.0;;;190.6;34.5
60719;BME280;46567;51.660;5.824;2023-05-29T13:12:09;130560.0;;;190.6;33.5
60719;BME280;46567;51.660;5.824;2023-05-29T13:17:09;130520.0;;;190.6;34.0
60719;BME280;46567;51.660;5.824;2023-05-29T13:22:09;130490.0;;;190.6;33.0
60719;BME280;46567;51.660;5.824;2023-05-29T13:27:09;130470.0;;;190.6;32.0
60719;BME280;46567;51.660;5.824;2023-05-29T13:32:09;130460.0;;;190.6;31.0
60719;BME280;46567;51.660;5.824;2023-05-29T13:37:09;130430.0;;;190.6;30.5
60719;BME280;46567;51.660;5.824;2023-05-29T13:42:09;130420.0;;;190.6;30.0
60719;BME280;46567;51.660;5.824;2023-05-29T13:47:09;130360.0;;;190.6;29.5
60719;BME280;46567;51.660;5.824;2023-05-29T13:52:09;130380.0;;;190.6;30.0
60719;BME280;46567;51.660;5.824;2023-05-29T13:57:09;130340.0;;;190.6;31.0
60719;BME280;46567;51.660;5.824;2023-05-29T14:02:09;130320.0;;;190.6;29.0
60719;BME280;46567;51.660;5.824;2023-05-29T14:07:09;130290.0;;;190.6;28.5
60719;BME280;46567;51.660;5.824;2023-05-29T14:12:09;130280.0;;;190.6;27.0
60719;BME280;46567;51.660;5.824;2023-05-29T14:17:09;130260.0;;;190.6;27.0
60719;BME280;46567;51.660;5.824;2023-05-29T14:22:09;130260.0;;;190.6;26.5
60719;BME280;46567;51.660;5.824;2023-05-29T14:27:09;130280.0;;;190.6;26.0
60719;BME280;46567;51.660;5.824;2023-05-29T14:32:09;130280.0;;;190.6;26.0
60719;BME280;46567;51.660;5.824;2023-05-29T14:37:09;130300.0;;;190.6;27.0
60719;BME280;46567;51.660;5.824;2023-05-29T14:42:09;130300.0;;;190.6;25.5
60719;BME280;46567;51.660;5.824;2023-05-29T14:47:09;130290.0;;;190.6;25.5
60719;BME280;46567;51.660;5.824;2023-05-29T14:52:09;130250.0;;;190.6;26.0
60719;BME280;46567;51.660;5.824;2023-05-29T14:57:09;130220.0;;;190.6;25.5
60719;BME280;46567;51.660;5.824;2023-05-29T15:02:09;130190.0;;;190.6;27.0
60719;BME280;46567;51.660;5.824;2023-05-29T15:07:09;130140.0;;;190.6;26.5
60719;BME280;46567;51.660;5.824;2023-05-29T15:12:09;130120.0;;;190.6;26.0
60719;BME280;46567;51.660;5.824;2023-05-29T15:17:09;130100.0;;;190.6;27.0
60719;BME280;46567;51.660;5.824;2023-05-29T15:22:09;130070.0;;;190.6;26.0
60719;BME280;46567;51.660;5.824;2023-05-29T15:27:09;130070.0;;;190.6;26.0
60719;BME280;46567;51.660;5.824;2023-05-29T15:32:09;130020.0;;;190.6;25.0
60719;BME280;46567;51.660;5.824;2023-05-29T15:37:09;130040.0;;;190.6;24.5
60719;BME280;46567;51.660;5.824;2023-05-29T15:42:09;130060.0;;;190.6;25.0
60719;BME280;46567;51.660;5.824;2023-05-29T15:47:09;130060.0;;;190.6;24.5
60719;BME280;46567;51.660;5.824;2023-05-29T15:52:09;130040.0;;;190.6;25.0
60719;BME280;46567;51.660;5.824;2023-05-29T15:57:09;130040.0;;;190.6;24.5
60719;BME280;46567;51.660;5.824;2023-05-29T16:02:10;130090.0;;;190.6;23.5
60719;BME280;46567;51.660;5.824;2023-05-29T16:07:09;130100.0;;;190.6;24.0
60719;BME280;46567;51.660;5.824;2023-05-29T16:12:09;130120.0;;;190.6;24.0
60719;BME280;46567;51.660;5.824;2023-05-29T16:17:09;130090.0;;;190.6;24.5
60719;BME280;46567;51.660;5.824;2023-05-29T16:22:09;130080.0;;;190.6;23.0
60719;BME280;46567;51.660;5.824;2023-05-29T16:27:09;130080.0;;;190.6;23.0
60719;BME280;46567;51.660;5.824;2023-05-29T16:32:09;130070.0;;;190.6;22.0
60719;BME280;46567;51.660;5.824;2023-05-29T16:37:09;130060.0;;;190.6;21.5
60719;BME280;46567;51.660;5.824;2023-05-29T16:42:09;130030.0;;;190.6;21.5
60719;BME280;46567;51.660;5.824;2023-05-29T16:47:09;130030.0;;;190.6;22.5
60719;BME280;46567;51.660;5.824;2023-05-29T16:52:09;129980.0;;;190.6;22.0
60719;BME280;46567;51.660;5.824;2023-05-29T16:57:09;129970.0;;;190.6;22.0
60719;BME280;46567;51.660;5.824;2023-05-29T17:02:09;129960.0;;;190.6;22.5
60719;BME280;46567;51.660;5.824;2023-05-29T17:07:09;129990.0;;;190.6;22.5
60719;BME280;46567;51.660;5.824;2023-05-29T17:12:09;130000.0;;;190.6;21.5
60719;BME280;46567;51.660;5.824;2023-05-29T17:17:09;130070.0;;;190.6;22.5
60719;BME280;46567;51.660;5.824;2023-05-29T17:22:09;130100.0;;;190.6;23.5
60719;BME280;46567;51.660;5.824;2023-05-29T17:27:09;130150.0;;;190.6;24.0
60719;BME280;46567;51.660;5.824;2023-05-29T17:32:09;130240.0;;;190.6;25.0
60719;BME280;46567;51.660;5.824;2023-05-29T17:37:09;130280.0;;;190.6;24.5
60719;BME280;46567;51.660;5.824;2023-05-29T17:42:09;130340.0;;;190.6;25.5
60719;BME280;46567;51.660;5.824;2023-05-29T17:47:09;130370.0;;;190.6;26.0
60719;BME280;46567;51.660;5.824;2023-05-29T17:52:10;130350.0;;;190.6;26.0
60719;BME280;46567;51.660;5.824;2023-05-29T17:57:09;130390.0;;;190.6;25.5
60719;BME280;46567;51.660;5.824;2023-05-29T18:02:09;130480.0;;;190.6;26.0
60719;BME280;46567;51.660;5.824;2023-05-29T18:07:09;130530.0;;;190.6;26.0
60719;BME280;46567;51.660;5.824;2023-05-29T18:12:09;130530.0;;;190.6;26.5
60719;BME280;46567;51.660;5.824;2023-05-29T18:17:09;130560.0;;;190.6;26.0
60719;BME280;46567;51.660;5.824;2023-05-29T18:22:09;130610.0;;;190.6;24.5
60719;BME280;46567;51.660;5.824;2023-05-29T18:27:09;130650.0;;;190.6;24.0
60719;BME280;46567;51.660;5.824;2023-05-29T18:32:09;130700.0;;;190.6;24.0
60719;BME280;46567;51.660;5.824;2023-05-29T18:37:09;130740.0;;;190.6;24.0
60719;BME280;46567;51.660;5.824;2023-05-29T18:42:09;130790.0;;;190.6;24.0
60719;BME280;46567;51.660;5.824;2023-05-29T18:47:09;130800.0;;;190.6;24.5
60719;BME280;46567;51.660;5.824;2023-05-29T18:52:09;130840.0;;;190.6;26.0
60719;BME280;46567;51.660;5.824;2023-05-29T18:57:09;130910.0;;;190.6;27.0
60719;BME280;46567;51.660;5.824;2023-05-29T19:02:09;130970.0;;;190.6;27.5
60719;BME280;46567;51.660;5.824;2023-05-29T19:07:09;131020.0;;;190.6;28.5
60719;BME280;46567;51.660;5.824;2023-05-29T19:12:09;131070.0;;;190.6;29.5
60719;BME280;46567;51.660;5.824;2023-05-29T19:17:09;131120.0;;;190.6;30.0
60719;BME280;46567;51.660;5.824;2023-05-29T19:22:09;131170.0;;;190.6;30.5
60719;BME280;46567;51.660;5.824;2023-05-29T19:27:09;131220.0;;;190.6;31.0
60719;BME280;46567;51.660;5.824;2023-05-29T19:32:09;131270.0;;;190.6;32.0
60719;BME280;46567;51.660;5.824;2023-05-29T19:42:09;131390.0;;;190.6;34.0
60719;BME280;46567;51.660;5.824;2023-05-29T19:47:09;131430.0;;;190.6;34.5
60719;BME280;46567;51.660;5.824;2023-05-29T19:52:09;131460.0;;;190.6;35.5
60719;BME280;46567;51.660;5.824;2023-05-29T19:57:09;131510.0;;;190.6;36.0
60719;BME280;46567;51.660;5.824;2023-05-29T20:02:09;131550.0;;;190.6;36.5
60719;BME280;46567;51.660;5.824;2023-05-29T20:07:09;131580.0;;;190.6;37.0
60719;BME280;46567;51.660;5.824;2023-05-29T20:12:09;131630.0;;;190.6;37.5
60719;BME280;46567;51.660;5.824;2023-05-29T20:17:09;131680.0;;;190.6;37.5
60719;BME280;46567;51.660;5.824;2023-05-29T20:22:09;131720.0;;;190.6;38.0
60719;BME280;46567;51.660;5.824;2023-05-29T20:27:09;131770.0;;;190.6;38.5
60719;BME280;46567;51.660;5.824;2023-05-29T20:32:09;131790.0;;;190.6;39.0
60719;BME280;46567;51.660;5.824;2023-05-29T20:37:09;131830.0;;;190.6;39.5
60719;BME280;46567;51.660;5.824;2023-05-29T20:42:09;131860.0;;;190.6;39.5
60719;BME280;46567;51.660;5.824;2023-05-29T20:47:09;131890.0;;;190.6;40.0
60719;BME280;46567;51.660;5.824;2023-05-29T20:52:09;131900.0;;;190.6;41.0
60719;BME280;46567;51.660;5.824;2023-05-29T20:57:09;131940.0;;;190.6;41.5
60719;BME280;46567;51.660;5.824;2023-05-29T21:02:09;131960.0;;;190.6;42.0
60719;BME280;46567;51.660;5.824;2023-05-29T21:07:09;131980.0;;;190.6;42.0
60719;BME280;46567;51.660;5.824;2023-05-29T21:12:09;131990.0;;;190.6;43.0
60719;BME280;46567;51.660;5.824;2023-05-29T21:17:09;132020.0;;;190.6;44.5
60719;BME280;46567;51.660;5.824;2023-05-29T21:22:09;132070.0;;;190.6;45.0
60719;BME280;46567;51.660;5.824;2023-05-29T21:27:09;132100.0;;;190.6;46.0
60719;BME280;46567;51.660;5.824;2023-05-29T21:32:09;132110.0;;;190.6;47.5
60719;BME280;46567;51.660;5.824;2023-05-29T21:37:09;132150.0;;;190.6;48.5
60719;BME280;46567;51.660;5.824;2023-05-29T21:42:09;132170.0;;;190.6;49.0
60719;BME280;46567;51.660;5.824;2023-05-29T21:47:09;132190.0;;;190.6;49.5
60719;BME280;46567;51.660;5.824;2023-05-29T21:52:09;132210.0;;;190.6;49.5
60719;BME280;46567;51.660;5.824;2023-05-29T21:57:13;132240.0;;;190.6;50.0
60719;BME280;46567;51.660;5.824;2023-05-29T22:02:09;132260.0;;;190.6;50.5
60719;BME280;46567;51.660;5.824;2023-05-29T22:07:09;132290.0;;;190.6;51.5
60719;BME280;46567;51.660;5.824;2023-05-29T22:12:09;132320.0;;;190.6;52.5
60719;BME280;46567;51.660;5.824;2023-05-29T22:17:09;132340.0;;;190.6;53.5
60719;BME280;46567;51.660;5.824;2023-05-29T22:22:09;132360.0;;;190.6;53.5
60719;BME280;46567;51.660;5.824;2023-05-29T22:27:09;132390.0;;;190.6;55.0
60719;BME280;46567;51.660;5.824;2023-05-29T22:32:09;132420.0;;;190.6;57.0
60719;BME280;46567;51.660;5.824;2023-05-29T22:37:09;132450.0;;;190.6;57.5
60719;BME280;46567;51.660;5.824;2023-05-29T22:42:09;132480.0;;;190.6;59.0
60719;BME280;46567;51.660;5.824;2023-05-29T22:47:09;132500.0;;;190.6;59.5
60719;BME280;46567;51.660;5.824;2023-05-29T22:52:09;132520.0;;;190.6;60.5
60719;BME280;46567;51.660;5.824;2023-05-29T22:57:09;132550.0;;;190.6;61.5
60719;BME280;46567;51.660;5.824;2023-05-29T23:02:09;132560.0;;;190.6;63.5
60719;BME280;46567;51.660;5.824;2023-05-29T23:07:09;132580.0;;;190.6;65.0
60719;BME280;46567;51.660;5.824;2023-05-29T23:12:09;132600.0;;;190.6;65.5
60719;BME280;46567;51.660;5.824;2023-05-29T23:17:09;132630.0;;;190.6;66.5
60719;BME280;46567;51.660;5.824;2023-05-29T23:22:09;132630.0;;;190.6;65.5
60719;BME280;46567;51.660;5.824;2023-05-29T23:27:09;132650.0;;;190.6;67.0
60719;BME280;46567;51.660;5.824;2023-05-29T23:32:09;132670.0;;;190.6;67.5
60719;BME280;46567;51.660;5.824;2023-05-29T23:37:09;132670.0;;;190.6;68.5
60719;BME280;46567;51.660;5.824;2023-05-29T23:42:09;132690.0;;;190.6;68.5
60719;BME280;46567;51.660;5.824;2023-05-29T23:47:09;132710.0;;;190.6;70.0
60719;BME280;46567;51.660;5.824;2023-05-29T23:52:09;132730.0;;;190.6;71.5
60719;BME280;46567;51.660;5.824;2023-05-29T23:57:09;132740.0;;;190.6;71.0
